createdAt,value
2023-01-28T00:01:42.283Z,76.99
2023-01-28T00:04:10.008Z,77.18
2023-01-28T00:06:37.811Z,77.67
2023-01-28T00:09:06.922Z,78.35
2023-01-28T00:11:34.810Z,79.67
2023-01-28T00:14:04.606Z,78.88
2023-01-28T00:16:32.346Z,79.30
2023-01-28T00:19:00.142Z,78.60
2023-01-28T00:21:27.848Z,77.68
2023-01-28T00:23:56.526Z,78.24
2023-01-28T00:26:26.548Z,79.57
2023-01-28T00:28:54.397Z,79.32
2023-01-28T00:31:24.657Z,79.06
2023-01-28T00:33:53.313Z,79.60
2023-01-28T00:36:22.656Z,80.59
2023-01-28T00:38:51.068Z,80.35
2023-01-28T00:41:22.024Z,79.21
2023-01-28T00:43:52.309Z,78.54
2023-01-28T00:46:21.012Z,79.63
2023-01-28T00:48:48.798Z,79.71
2023-01-28T00:51:18.313Z,78.79
2023-01-28T00:53:46.055Z,79.63
2023-01-28T00:56:16.374Z,80.11
2023-01-28T00:58:44.215Z,79.60
2023-01-28T01:01:14.888Z,79.70
2023-01-28T01:03:42.944Z,80.43
2023-01-28T01:06:11.782Z,80.68
2023-01-28T01:08:42.925Z,81.42
2023-01-28T01:11:12.486Z,80.89
2023-01-28T01:13:40.324Z,79.65
2023-01-28T01:16:10.695Z,79.86
2023-01-28T01:18:41.912Z,80.73
2023-01-28T01:21:10.937Z,81.00
2023-01-28T01:23:38.938Z,80.60
2023-01-28T01:26:07.641Z,81.08
2023-01-28T01:28:35.571Z,80.74
2023-01-28T01:31:05.552Z,80.98
2023-01-28T01:33:33.606Z,81.20
2023-01-28T01:36:03.158Z,80.89
2023-01-28T01:38:30.893Z,79.64
2023-01-28T01:41:00.013Z,79.79
2023-01-28T01:43:48.001Z,80.55
2023-01-28T01:46:18.693Z,79.31
2023-01-28T01:48:47.131Z,79.96
2023-01-28T01:51:19.611Z,78.93
2023-01-28T01:53:51.854Z,80.20
2023-01-28T01:56:24.784Z,79.09
2023-01-28T01:58:55.829Z,79.80
2023-01-28T02:01:26.930Z,81.07
2023-01-28T02:04:00.332Z,82.22
2023-01-28T02:06:30.029Z,80.84
2023-01-28T02:08:57.965Z,80.30
2023-01-28T02:11:28.846Z,79.85
2023-01-28T02:13:59.417Z,80.20
2023-01-28T02:16:28.061Z,79.27
2023-01-28T02:18:55.978Z,80.23
2023-01-28T02:24:54.923Z,79.67
2023-01-28T02:27:32.455Z,81.02
2023-01-28T02:30:08.820Z,82.19
2023-01-28T02:32:42.293Z,81.32
2023-01-28T02:35:13.616Z,81.29
2023-01-28T02:37:48.256Z,80.73
2023-01-28T02:40:22.819Z,80.52
2023-01-28T02:42:50.587Z,81.11
2023-01-28T02:45:24.517Z,80.01
2023-01-28T02:47:58.850Z,81.77
2023-01-28T02:50:38.253Z,80.96
2023-01-28T02:53:36.097Z,80.86
2023-01-28T02:56:13.222Z,81.95
2023-01-28T02:58:45.997Z,81.63
2023-01-28T03:01:24.491Z,81.46
2023-01-28T03:04:00.496Z,80.58
2023-01-28T03:06:34.478Z,81.10
2023-01-28T03:09:23.672Z,79.58
2023-01-28T03:12:13.235Z,79.27
2023-01-28T03:14:59.886Z,79.24
2023-01-28T03:17:50.816Z,78.94
2023-01-28T03:20:36.819Z,79.23
2023-01-28T03:23:30.042Z,79.81
2023-01-28T03:26:19.828Z,79.23
2023-01-28T03:29:08.286Z,79.06
2023-01-28T03:31:55.151Z,78.36
2023-01-28T03:34:41.797Z,77.95
2023-01-28T03:37:10.125Z,77.54
2023-01-28T03:39:39.036Z,77.20
2023-01-28T03:42:09.624Z,78.62
2023-01-28T03:44:57.230Z,78.14
2023-01-28T03:47:27.299Z,77.73
2023-01-28T03:49:59.724Z,77.16
2023-01-28T03:52:29.916Z,78.33
2023-01-28T03:54:58.019Z,78.07
2023-01-28T03:57:31.445Z,77.77
2023-01-28T03:59:59.517Z,79.27
2023-01-28T04:02:27.554Z,77.97
2023-01-28T04:04:58.956Z,78.59
2023-01-28T04:07:26.914Z,78.21
2023-01-28T04:09:54.602Z,78.26
2023-01-28T04:12:23.632Z,78.38
2023-01-28T04:14:51.440Z,79.22
2023-01-28T04:17:19.249Z,78.33
2023-01-28T04:19:46.991Z,77.67
2023-01-28T04:22:16.146Z,78.04
2023-01-28T04:24:43.912Z,78.50
2023-01-28T04:27:11.609Z,77.23
2023-01-28T04:29:39.383Z,76.58
2023-01-28T04:32:07.609Z,76.60
2023-01-28T04:34:36.200Z,76.29
2023-01-28T04:37:04.003Z,76.39
2023-01-28T04:39:33.174Z,75.75
2023-01-28T04:42:00.894Z,76.34
2023-01-28T04:44:28.650Z,76.33
2023-01-28T04:46:56.437Z,77.38
2023-01-28T04:49:24.193Z,76.71
2023-01-28T04:51:51.930Z,76.04
2023-01-28T04:54:19.725Z,75.77
2023-01-28T04:56:48.857Z,74.14
2023-01-28T04:59:16.673Z,73.27
2023-01-28T05:01:44.375Z,73.36
2023-01-28T05:04:12.227Z,75.21
2023-01-28T05:06:39.997Z,74.84
2023-01-28T05:09:07.972Z,75.54
2023-01-28T05:11:38.737Z,75.56
2023-01-28T05:14:08.417Z,76.53
2023-01-28T05:16:36.283Z,76.05
2023-01-28T05:19:04.686Z,76.01
2023-01-28T05:21:32.374Z,75.29
2023-01-28T05:24:00.204Z,75.68
2023-01-28T05:26:28.030Z,74.84
2023-01-28T05:28:55.849Z,75.92
2023-01-28T05:31:25.014Z,75.63
2023-01-28T05:33:53.285Z,76.22
2023-01-28T05:36:21.115Z,77.80
2023-01-28T05:38:48.898Z,77.03
2023-01-28T05:41:16.694Z,77.84
2023-01-28T05:43:44.452Z,76.36
2023-01-28T05:46:12.325Z,79.10
2023-01-28T05:48:41.502Z,77.65
2023-01-28T05:51:09.223Z,77.34
2023-01-28T05:53:36.973Z,77.68
2023-01-28T05:56:05.181Z,77.03
2023-01-28T05:58:32.965Z,77.36
2023-01-28T06:01:00.849Z,76.79
2023-01-28T06:03:28.565Z,77.23
2023-01-28T06:05:57.742Z,78.51
2023-01-28T06:08:25.513Z,77.44
2023-01-28T06:10:53.302Z,77.63
2023-01-28T06:13:21.045Z,78.74
2023-01-28T06:15:50.487Z,76.98
2023-01-28T06:18:18.210Z,77.37
2023-01-28T06:20:45.899Z,77.03
2023-01-28T06:23:15.039Z,77.58
2023-01-28T06:25:42.863Z,77.06
2023-01-28T06:28:10.813Z,76.99
2023-01-28T06:30:38.609Z,77.97
2023-01-28T06:33:06.528Z,78.64
2023-01-28T06:35:34.327Z,79.57
2023-01-28T06:38:02.031Z,79.15
2023-01-28T06:40:31.123Z,79.54
2023-01-28T06:42:58.938Z,81.42
2023-01-28T06:45:26.710Z,82.13
2023-01-28T06:47:54.572Z,80.79
2023-01-28T06:50:22.498Z,81.32
2023-01-28T06:52:50.387Z,81.82
2023-01-28T06:55:18.421Z,81.80
2023-01-28T06:57:47.511Z,82.03
2023-01-28T07:00:16.873Z,81.80
2023-01-28T07:02:44.869Z,82.94
2023-01-28T07:05:12.931Z,83.68
2023-01-28T07:07:41.981Z,83.74
2023-01-28T07:10:11.013Z,82.82
2023-01-28T07:12:38.794Z,82.15
2023-01-28T07:15:10.882Z,82.41
2023-01-28T07:17:40.545Z,82.62
2023-01-28T07:20:10.561Z,82.74
2023-01-28T07:22:39.479Z,82.44
2023-01-28T07:25:08.710Z,82.29
2023-01-28T07:27:36.431Z,81.61
2023-01-28T07:30:04.803Z,82.13
2023-01-28T07:32:34.003Z,81.67
2023-01-28T07:35:01.711Z,80.37
2023-01-28T07:37:29.483Z,80.35
2023-01-28T07:39:57.247Z,80.68
2023-01-28T07:42:25.098Z,81.58
2023-01-28T07:44:52.867Z,81.16
2023-01-28T07:47:20.697Z,81.75
2023-01-28T07:49:49.920Z,81.64
2023-01-28T07:52:17.726Z,82.07
2023-01-28T07:54:45.998Z,80.92
2023-01-28T07:57:13.771Z,79.79
2023-01-28T07:59:41.454Z,80.21
2023-01-28T08:02:13.327Z,81.20
2023-01-28T08:04:41.528Z,81.47
2023-01-28T08:07:10.891Z,81.22
2023-01-28T08:09:38.670Z,81.28
2023-01-28T08:12:06.790Z,81.33
2023-01-28T08:14:34.550Z,81.53
2023-01-28T08:17:02.362Z,81.37
2023-01-28T08:19:30.297Z,81.14
2023-01-28T08:21:58.053Z,80.41
2023-01-28T08:24:27.223Z,80.51
2023-01-28T08:26:55.051Z,81.14
2023-01-28T08:29:22.828Z,81.21
2023-01-28T08:31:50.593Z,82.02
2023-01-28T08:34:18.406Z,80.48
2023-01-28T08:36:46.143Z,80.21
2023-01-28T08:39:13.893Z,79.43
2023-01-28T08:41:43.023Z,79.48
2023-01-28T08:44:10.841Z,77.95
2023-01-28T08:46:38.591Z,79.27
2023-01-28T08:49:06.333Z,78.33
2023-01-28T08:51:34.074Z,78.35
2023-01-28T08:54:02.196Z,78.42
2023-01-28T08:56:30.491Z,78.32
2023-01-28T08:58:59.676Z,80.01
2023-01-28T09:01:29.379Z,80.37
2023-01-28T09:03:57.281Z,81.17
2023-01-28T09:06:25.177Z,80.13
2023-01-28T09:08:53.058Z,80.30
2023-01-28T09:11:20.817Z,81.15
2023-01-28T09:13:48.642Z,79.44
2023-01-28T09:16:18.297Z,81.36
2023-01-28T09:18:46.124Z,79.18
2023-01-28T09:21:13.869Z,81.33
2023-01-28T09:23:41.891Z,79.70
2023-01-28T09:26:10.192Z,80.68
2023-01-28T09:28:38.510Z,80.33
2023-01-28T09:31:08.472Z,80.57
2023-01-28T09:33:38.991Z,80.23
2023-01-28T09:36:08.806Z,80.53
2023-01-28T09:38:36.503Z,80.33
2023-01-28T09:41:16.631Z,79.07
2023-01-28T09:44:07.859Z,78.33
2023-01-28T09:46:38.593Z,79.99
2023-01-28T09:49:19.198Z,79.57
2023-01-28T09:51:52.301Z,77.39
2023-01-28T09:54:28.766Z,78.65
2023-01-28T09:57:05.554Z,76.25
2023-01-28T09:59:36.267Z,75.48
2023-01-28T10:02:27.081Z,75.07
2023-01-28T10:05:04.675Z,75.00
2023-01-28T10:07:42.151Z,76.73
2023-01-28T10:10:15.005Z,76.73
2023-01-28T10:12:59.437Z,76.25
2023-01-28T10:15:48.400Z,74.68
2023-01-28T10:18:18.268Z,74.38
2023-01-28T10:20:50.689Z,75.61
2023-01-28T10:23:23.758Z,74.10
2023-01-28T10:25:51.681Z,75.77
2023-01-28T10:28:23.005Z,76.09
2023-01-28T10:30:51.958Z,74.84
2023-01-28T10:33:23.298Z,74.26
2023-01-28T10:35:52.501Z,74.20
2023-01-28T10:38:23.673Z,74.48
2023-01-28T10:40:52.574Z,74.42
2023-01-28T10:43:25.733Z,75.38
2023-01-28T10:46:02.320Z,75.58
2023-01-28T10:48:35.081Z,75.69
2023-01-28T10:51:06.300Z,73.20
2023-01-28T10:53:38.901Z,76.82
2023-01-28T10:56:09.945Z,75.98
2023-01-28T10:58:51.647Z,77.57
2023-01-28T11:01:19.478Z,77.61
2023-01-28T11:03:56.249Z,79.28
2023-01-28T11:06:27.681Z,78.51
2023-01-28T11:08:55.526Z,80.41
2023-01-28T11:11:27.656Z,79.19
2023-01-28T11:13:58.550Z,80.20
2023-01-28T11:16:27.510Z,79.76
2023-01-28T11:19:00.265Z,78.92
2023-01-28T11:21:31.126Z,78.92
2023-01-28T11:24:02.335Z,79.51
2023-01-28T11:26:33.725Z,81.69
2023-01-28T11:29:01.655Z,80.57
2023-01-28T11:31:29.881Z,80.48
2023-01-28T11:33:59.789Z,80.68
2023-01-28T11:36:31.505Z,82.48
2023-01-28T11:39:00.710Z,81.80
2023-01-28T11:41:30.714Z,82.75
2023-01-28T11:44:00.681Z,81.84
2023-01-28T11:46:48.092Z,81.72
2023-01-28T11:49:27.598Z,81.72
2023-01-28T11:52:04.618Z,81.62
2023-01-28T11:54:49.058Z,81.45
2023-01-28T11:57:25.241Z,80.83
2023-01-28T12:00:01.332Z,82.17
2023-01-28T12:02:49.780Z,82.62
2023-01-28T12:05:34.866Z,78.90
2023-01-28T12:08:10.516Z,80.78
2023-01-28T12:10:48.275Z,81.04
2023-01-28T12:13:30.448Z,80.55
2023-01-28T12:16:39.847Z,78.31
2023-01-28T12:19:37.375Z,79.79
2023-01-28T12:22:25.576Z,81.14
2023-01-28T12:25:14.775Z,81.26
2023-01-28T12:27:54.313Z,81.14
2023-01-28T12:30:35.530Z,80.01
2023-01-28T12:33:39.646Z,83.09
2023-01-28T12:36:23.133Z,80.96
2023-01-28T12:39:02.142Z,81.17
2023-01-28T12:41:39.441Z,79.92
2023-01-28T12:44:11.389Z,79.74
2023-01-28T12:46:46.431Z,79.58
2023-01-28T12:49:21.237Z,79.32
2023-01-28T12:51:59.463Z,79.95
2023-01-28T12:54:34.249Z,80.11
2023-01-28T12:57:04.648Z,80.54
2023-01-28T12:59:39.538Z,80.28
2023-01-28T13:02:21.949Z,81.47
2023-01-28T13:04:55.496Z,80.57
2023-01-28T13:07:25.706Z,79.78
2023-01-28T13:09:55.929Z,80.21
2023-01-28T13:12:25.391Z,80.73
2023-01-28T13:14:54.391Z,81.11
2023-01-28T13:17:28.430Z,80.41
2023-01-28T13:19:56.405Z,80.09
2023-01-28T13:22:31.137Z,80.87
2023-01-28T13:25:13.204Z,80.38
2023-01-28T13:27:42.689Z,79.00
2023-01-28T13:30:25.735Z,79.30
2023-01-28T13:32:59.165Z,80.25
2023-01-28T13:35:33.932Z,79.93
2023-01-28T13:38:08.880Z,79.90
2023-01-28T13:40:37.406Z,80.33
2023-01-28T13:43:26.434Z,82.05
2023-01-28T13:45:59.728Z,81.66
2023-01-28T13:48:33.908Z,84.16
2023-01-28T13:51:04.125Z,83.63
2023-01-28T13:53:42.612Z,83.57
2023-01-28T13:56:21.900Z,82.82
2023-01-28T13:59:26.880Z,83.24
2023-01-28T14:02:27.741Z,82.58
2023-01-28T14:05:22.768Z,81.63
2023-01-28T14:08:27.111Z,82.24
2023-01-28T14:11:04.168Z,81.52
2023-01-28T14:13:56.859Z,80.79
2023-01-28T14:16:42.142Z,78.58
2023-01-28T14:19:14.271Z,77.91
2023-01-28T14:21:42.650Z,76.40
2023-01-28T14:24:17.900Z,76.88
2023-01-28T14:26:57.363Z,76.60
2023-01-28T14:29:42.504Z,75.25
2023-01-28T14:32:16.770Z,75.06
2023-01-28T14:34:46.781Z,75.02
2023-01-28T14:37:16.841Z,76.01
2023-01-28T14:39:48.862Z,76.75
2023-01-28T14:42:22.084Z,75.94
2023-01-28T14:45:02.882Z,74.81
2023-01-28T14:47:50.927Z,72.58
2023-01-28T14:50:32.209Z,73.43
2023-01-28T14:53:23.611Z,73.66
2023-01-28T14:55:58.022Z,73.82
2023-01-28T14:58:29.146Z,71.71
2023-01-28T15:00:59.212Z,69.46
2023-01-28T15:03:30.365Z,69.72
2023-01-28T15:06:14.019Z,70.79
2023-01-28T15:08:42.066Z,68.82
2023-01-28T15:11:12.522Z,70.45
2023-01-28T15:13:43.315Z,69.14
2023-01-28T15:16:18.983Z,69.49
2023-01-28T15:18:49.222Z,69.13
2023-01-28T15:21:21.217Z,69.21
2023-01-28T15:23:53.547Z,68.82
2023-01-28T15:26:23.366Z,68.28
2023-01-28T15:28:52.550Z,68.35
2023-01-28T15:31:22.165Z,68.91
2023-01-28T15:33:59.633Z,69.21
2023-01-28T15:36:28.049Z,69.47
2023-01-28T15:38:56.359Z,69.33
2023-01-28T15:41:28.628Z,69.32
2023-01-28T15:43:56.430Z,66.31
2023-01-28T15:46:24.316Z,66.82
2023-01-28T15:48:59.856Z,66.28
2023-01-28T15:51:30.909Z,66.62
2023-01-28T15:54:01.847Z,66.89
2023-01-28T15:56:31.637Z,67.94
2023-01-28T15:59:10.644Z,66.75
2023-01-28T16:01:38.453Z,67.47
2023-01-28T16:04:10.149Z,67.15
2023-01-28T16:06:41.547Z,68.20
2023-01-28T16:09:20.376Z,68.45
2023-01-28T16:11:48.243Z,68.16
2023-01-28T16:14:25.548Z,68.73
2023-01-28T16:16:55.656Z,69.09
2023-01-28T16:19:33.727Z,69.34
2023-01-28T16:22:01.733Z,69.62
2023-01-28T16:24:32.137Z,69.83
2023-01-28T16:27:02.563Z,69.52
2023-01-28T16:29:31.870Z,70.71
2023-01-28T16:32:01.340Z,69.18
2023-01-28T16:34:30.660Z,70.35
2023-01-28T16:36:59.913Z,70.37
2023-01-28T16:39:27.634Z,70.40
2023-01-28T16:41:56.967Z,70.33
2023-01-28T16:44:24.758Z,71.04
2023-01-28T16:46:52.538Z,70.70
2023-01-28T16:49:20.368Z,70.88
2023-01-28T16:51:49.509Z,72.41
2023-01-28T16:54:18.025Z,71.74
2023-01-28T16:56:46.861Z,72.41
2023-01-28T16:59:16.298Z,72.71
2023-01-28T17:01:44.220Z,72.64
2023-01-28T17:04:13.174Z,73.70
2023-01-28T17:06:43.021Z,74.86
2023-01-28T17:09:14.100Z,74.75
2023-01-28T17:11:42.392Z,73.67
2023-01-28T17:14:10.573Z,73.66
2023-01-28T17:16:38.578Z,75.04
2023-01-28T17:19:06.817Z,75.44
2023-01-28T17:21:34.706Z,75.30
2023-01-28T17:24:03.253Z,75.19
2023-01-28T17:26:34.186Z,75.23
2023-01-28T17:29:02.252Z,75.14
2023-01-28T17:31:30.173Z,76.35
2023-01-28T17:33:59.305Z,75.86
2023-01-28T17:36:28.208Z,73.30
2023-01-28T17:38:56.497Z,73.72
2023-01-28T17:41:24.401Z,72.97
2023-01-28T17:43:55.359Z,73.94
2023-01-28T17:46:24.591Z,74.12
2023-01-28T17:48:52.477Z,73.29
2023-01-28T17:51:20.557Z,71.03
2023-01-28T17:53:49.037Z,71.44
2023-01-28T17:56:19.039Z,70.61
2023-01-28T17:58:50.974Z,71.39
2023-01-28T18:01:20.881Z,71.63
2023-01-28T18:03:48.755Z,71.47
2023-01-28T18:06:16.729Z,70.54
2023-01-28T18:08:45.214Z,71.23
2023-01-28T18:11:15.751Z,71.58
2023-01-28T18:13:44.339Z,71.30
2023-01-28T18:16:18.237Z,71.16
2023-01-28T18:18:48.923Z,70.90
2023-01-28T18:21:36.818Z,72.36
2023-01-28T18:24:10.963Z,72.14
2023-01-28T18:26:38.971Z,70.36
2023-01-28T18:29:06.794Z,69.51
2023-01-28T18:31:34.821Z,70.23
2023-01-28T18:34:04.016Z,70.18
2023-01-28T18:36:31.734Z,69.37
2023-01-28T18:38:59.497Z,69.23
2023-01-28T18:41:27.277Z,70.43
2023-01-28T18:43:55.013Z,68.81
2023-01-28T18:46:22.823Z,68.65
2023-01-28T18:48:50.650Z,69.50
2023-01-28T18:51:30.019Z,68.36
2023-01-28T18:53:59.277Z,68.86
2023-01-28T18:56:27.192Z,68.31
2023-01-28T18:58:58.222Z,67.58
2023-01-28T19:01:26.222Z,68.02
2023-01-28T19:03:54.508Z,67.97
2023-01-28T19:06:24.729Z,67.47
2023-01-28T19:08:54.572Z,67.81
2023-01-28T19:11:23.060Z,68.77
2023-01-28T19:13:51.380Z,68.11
2023-01-28T19:16:19.716Z,68.96
2023-01-28T19:18:54.108Z,69.41
2023-01-28T19:21:24.541Z,69.27
2023-01-28T19:23:56.455Z,68.68
2023-01-28T19:26:24.903Z,69.67
2023-01-28T19:28:52.935Z,69.07
2023-01-28T19:31:22.371Z,68.91
2023-01-28T19:33:54.414Z,68.91
2023-01-28T19:36:23.915Z,69.10
2023-01-28T19:38:51.757Z,69.29
2023-01-28T19:41:19.711Z,68.42
2023-01-28T19:43:47.572Z,71.00
2023-01-28T19:46:18.037Z,69.14
2023-01-28T19:48:46.039Z,68.95
2023-01-28T19:51:15.690Z,69.80
2023-01-28T19:53:45.708Z,68.94
2023-01-28T19:56:15.506Z,70.21
2023-01-28T19:58:44.999Z,71.29
2023-01-28T20:01:14.604Z,68.93
2023-01-28T20:03:43.149Z,70.26
2023-01-28T20:06:14.218Z,70.13
2023-01-28T20:08:42.868Z,70.32
2023-01-28T20:11:14.090Z,70.75
2023-01-28T20:13:43.291Z,69.25
2023-01-28T20:16:16.453Z,71.32
2023-01-28T20:18:44.239Z,70.91
2023-01-28T20:21:11.972Z,71.17
2023-01-28T20:23:39.740Z,71.71
2023-01-28T20:26:07.492Z,71.21
2023-01-28T20:28:36.596Z,72.17
2023-01-28T20:31:06.312Z,71.24
2023-01-28T20:33:34.414Z,70.62
2023-01-28T20:36:02.967Z,71.02
2023-01-28T20:38:31.029Z,70.64
2023-01-28T20:40:58.726Z,71.05
2023-01-28T20:43:28.592Z,71.46
2023-01-28T20:46:04.654Z,72.14
2023-01-28T20:48:32.514Z,72.30
2023-01-28T20:51:05.920Z,73.29
2023-01-28T20:53:34.295Z,73.56
2023-01-28T20:56:02.069Z,72.15
2023-01-28T20:58:29.919Z,73.09
2023-01-28T21:00:57.787Z,73.44
2023-01-28T21:03:27.225Z,72.33
2023-01-28T21:05:55.244Z,70.51
2023-01-28T21:08:23.024Z,72.41
2023-01-28T21:10:50.743Z,71.57
2023-01-28T21:13:18.642Z,72.44
2023-01-28T21:15:54.026Z,71.08
2023-01-28T21:18:22.164Z,71.68
2023-01-28T21:20:53.606Z,70.83
2023-01-28T21:23:23.252Z,70.51
2023-01-28T21:25:51.773Z,70.59
2023-01-28T21:28:20.345Z,71.10
2023-01-28T21:30:48.767Z,69.63
2023-01-28T21:33:16.496Z,70.40
2023-01-28T21:35:44.459Z,70.99
2023-01-28T21:38:13.689Z,70.17
2023-01-28T21:40:41.458Z,69.43
2023-01-28T21:43:09.231Z,68.73
2023-01-28T21:45:37.038Z,70.77
2023-01-28T21:48:05.122Z,71.47
2023-01-28T21:50:53.107Z,71.99
2023-01-28T21:53:22.221Z,71.30
2023-01-28T21:55:49.951Z,70.40
2023-01-28T21:58:35.177Z,71.09
2023-01-28T22:01:09.705Z,72.08
2023-01-28T22:03:37.608Z,71.25
2023-01-28T22:06:05.624Z,71.44
2023-01-28T22:08:34.773Z,71.55
2023-01-28T22:11:03.629Z,71.72
2023-01-28T22:13:31.732Z,71.18
2023-01-28T22:15:59.573Z,71.07
2023-01-28T22:18:27.310Z,71.66
2023-01-28T22:20:58.886Z,72.42
2023-01-28T22:23:26.891Z,72.78
2023-01-28T22:25:56.248Z,72.29
2023-01-28T22:28:24.635Z,71.93
2023-01-28T22:30:52.484Z,71.47
2023-01-28T22:33:20.805Z,71.16
2023-01-28T22:35:48.799Z,70.24
2023-01-28T22:38:16.582Z,72.55
2023-01-28T22:40:44.356Z,70.80
2023-01-28T22:43:13.509Z,70.43
2023-01-28T22:45:41.244Z,69.68
2023-01-28T22:48:09.037Z,69.45
2023-01-28T22:50:37.806Z,69.70
2023-01-28T22:53:05.728Z,70.66
2023-01-28T22:55:33.930Z,70.18
2023-01-28T22:58:01.673Z,69.43
2023-01-28T23:00:30.747Z,70.99
2023-01-28T23:02:58.700Z,69.99
2023-01-28T23:05:27.412Z,70.84
2023-01-28T23:08:10.339Z,70.13
2023-01-28T23:10:39.061Z,69.42
2023-01-28T23:13:07.228Z,69.62
2023-01-28T23:15:53.820Z,69.45
2023-01-28T23:18:41.075Z,68.93
2023-01-28T23:21:33.504Z,69.57
2023-01-28T23:24:18.884Z,71.30
2023-01-28T23:26:47.072Z,72.02
2023-01-28T23:29:14.813Z,71.55
2023-01-28T23:31:47.276Z,72.79
2023-01-28T23:34:16.479Z,70.94
2023-01-28T23:36:44.770Z,70.50
2023-01-28T23:39:12.795Z,71.27
2023-01-28T23:41:40.549Z,71.07
2023-01-28T23:44:08.271Z,71.80
2023-01-28T23:46:39.747Z,71.21
2023-01-28T23:49:09.948Z,71.39
2023-01-28T23:51:37.846Z,72.74
2023-01-28T23:54:05.935Z,73.31
2023-01-28T23:56:35.362Z,72.13
2023-01-28T23:59:03.579Z,70.91
